createdAt,value
2023-01-29T00:01:30.454Z,5.97
2023-01-29T00:04:01.113Z,10.02
2023-01-29T00:06:32.297Z,9.52
2023-01-29T00:09:04.400Z,8.00
2023-01-29T00:11:36.305Z,7.47
2023-01-29T00:14:07.832Z,6.72
2023-01-29T00:16:39.239Z,12.27
2023-01-29T00:19:10.027Z,13.63
2023-01-29T00:21:41.173Z,5.40
2023-01-29T00:24:13.595Z,9.07
2023-01-29T00:26:44.668Z,7.75
2023-01-29T00:29:15.522Z,11.13
2023-01-29T00:31:47.470Z,15.38
2023-01-29T00:34:20.339Z,8.00
2023-01-29T00:36:51.482Z,13.73
2023-01-29T00:39:31.411Z,15.32
2023-01-29T00:42:25.469Z,19.95
2023-01-29T00:44:59.442Z,7.72
2023-01-29T00:47:34.386Z,18.75
2023-01-29T00:50:07.241Z,16.55
2023-01-29T00:52:38.611Z,17.73
2023-01-29T00:55:12.256Z,19.45
2023-01-29T00:57:43.695Z,20.75
2023-01-29T01:00:18.925Z,15.45
2023-01-29T01:03:07.418Z,16.45
2023-01-29T01:05:39.294Z,22.38
2023-01-29T01:08:24.925Z,17.58
2023-01-29T01:11:05.745Z,20.05
2023-01-29T01:13:37.195Z,19.88
2023-01-29T01:16:13.121Z,18.48
2023-01-29T01:18:44.921Z,15.15
2023-01-29T01:21:15.766Z,19.95
2023-01-29T01:23:47.263Z,20.95
2023-01-29T01:26:19.620Z,17.90
2023-01-29T01:28:50.615Z,22.10
2023-01-29T01:31:21.417Z,25.50
2023-01-29T01:33:54.436Z,22.98
2023-01-29T01:36:25.317Z,17.43
2023-01-29T01:38:56.420Z,21.75
2023-01-29T01:41:28.741Z,17.85
2023-01-29T01:44:01.874Z,21.33
2023-01-29T01:46:34.998Z,23.67
2023-01-29T01:49:11.805Z,26.55
2023-01-29T01:51:50.408Z,30.48
2023-01-29T01:54:26.583Z,27.70
2023-01-29T01:57:09.460Z,25.92
2023-01-29T01:59:41.711Z,31.83
2023-01-29T02:02:30.450Z,22.55
2023-01-29T02:05:18.983Z,21.67
2023-01-29T02:08:09.009Z,20.10
2023-01-29T02:10:45.780Z,20.95
2023-01-29T02:13:35.821Z,15.60
2023-01-29T02:16:07.508Z,15.40
2023-01-29T02:18:39.174Z,19.60
2023-01-29T02:21:29.365Z,16.58
2023-01-29T02:24:26.908Z,16.70
2023-01-29T02:27:13.772Z,11.80
2023-01-29T02:30:03.609Z,15.00
2023-01-29T02:32:54.832Z,18.52
2023-01-29T02:35:32.337Z,12.65
2023-01-29T02:38:14.427Z,16.20
2023-01-29T02:40:51.687Z,15.98
2023-01-29T02:43:35.550Z,19.15
2023-01-29T02:46:17.841Z,19.33
2023-01-29T02:48:58.197Z,14.20
2023-01-29T02:51:35.736Z,18.83
2023-01-29T02:54:17.169Z,18.73
2023-01-29T02:56:55.496Z,17.73
2023-01-29T02:59:31.444Z,12.57
2023-01-29T03:02:10.596Z,14.65
2023-01-29T03:04:48.498Z,13.98
2023-01-29T03:07:40.677Z,13.00
2023-01-29T03:12:59.781Z,14.60
2023-01-29T03:15:38.901Z,9.13
2023-01-29T03:18:41.360Z,8.15
2023-01-29T03:21:36.555Z,3.90
2023-01-29T03:24:35.855Z,18.13
2023-01-29T03:27:30.698Z,12.43
2023-01-29T03:33:13.641Z,8.48
2023-01-29T03:35:53.310Z,12.07
2023-01-29T03:38:31.821Z,9.75
2023-01-29T03:41:09.376Z,7.85
2023-01-29T03:43:50.235Z,14.70
2023-01-29T03:46:29.313Z,14.88
2023-01-29T03:49:08.715Z,5.97
2023-01-29T03:51:54.796Z,11.60
2023-01-29T03:54:35.810Z,11.27
2023-01-29T03:57:16.778Z,8.85
2023-01-29T03:59:59.377Z,3.50
2023-01-29T04:03:09.482Z,7.68
2023-01-29T04:05:47.753Z,9.45
2023-01-29T04:08:32.603Z,7.60
2023-01-29T04:11:12.715Z,7.40
2023-01-29T04:13:44.155Z,9.13
2023-01-29T04:16:21.196Z,7.15
2023-01-29T04:19:13.178Z,5.95
2023-01-29T04:21:50.425Z,15.48
2023-01-29T04:24:22.629Z,7.65
2023-01-29T04:27:07.080Z,4.80
2023-01-29T04:29:51.757Z,4.95
2023-01-29T04:32:33.525Z,4.57
2023-01-29T04:35:19.577Z,7.57
2023-01-29T04:38:04.869Z,6.18
2023-01-29T04:40:50.156Z,7.00
2023-01-29T04:43:29.395Z,4.47
2023-01-29T04:46:15.633Z,7.85
2023-01-29T04:49:06.591Z,4.95
2023-01-29T04:51:49.606Z,6.18
2023-01-29T04:54:34.510Z,5.68
2023-01-29T04:57:15.973Z,7.32
2023-01-29T04:59:55.248Z,2.90
2023-01-29T05:02:28.666Z,4.65
2023-01-29T05:05:00.742Z,3.47
2023-01-29T05:07:35.396Z,4.20
2023-01-29T05:10:10.846Z,6.22
2023-01-29T05:12:49.443Z,3.88
2023-01-29T05:15:28.207Z,3.22
2023-01-29T05:18:03.177Z,4.93
2023-01-29T05:20:37.166Z,3.45
2023-01-29T05:25:42.084Z,10.45
2023-01-29T05:28:16.819Z,3.88
2023-01-29T05:30:50.256Z,7.03
2023-01-29T05:33:23.833Z,4.72
2023-01-29T05:35:55.672Z,4.38
2023-01-29T05:38:26.850Z,6.45
2023-01-29T05:41:00.621Z,9.00
2023-01-29T05:46:03.492Z,4.57
2023-01-29T05:48:34.034Z,5.80
2023-01-29T05:51:06.933Z,5.10
2023-01-29T05:53:38.111Z,7.13
2023-01-29T05:56:10.116Z,4.57
2023-01-29T05:58:43.401Z,5.35
2023-01-29T06:01:16.961Z,7.47
2023-01-29T06:03:48.541Z,9.40
2023-01-29T06:06:20.210Z,4.30
2023-01-29T06:08:52.836Z,9.75
2023-01-29T06:11:24.871Z,4.07
2023-01-29T06:13:58.035Z,5.55
2023-01-29T06:16:31.225Z,8.00
2023-01-29T06:19:02.349Z,5.67
2023-01-29T06:21:33.607Z,6.72
2023-01-29T06:24:04.421Z,10.90
2023-01-29T06:26:35.512Z,7.45
2023-01-29T06:29:07.443Z,7.85
2023-01-29T06:31:39.615Z,9.52
2023-01-29T06:34:11.024Z,8.45
2023-01-29T06:36:42.852Z,7.47
2023-01-29T06:39:13.934Z,6.53
2023-01-29T06:41:45.514Z,6.30
2023-01-29T06:44:17.731Z,7.13
2023-01-29T06:46:48.783Z,11.38
2023-01-29T06:49:19.485Z,6.13
2023-01-29T06:51:50.405Z,8.93
2023-01-29T06:54:20.928Z,10.10
2023-01-29T06:56:53.461Z,8.30
2023-01-29T06:59:25.889Z,14.63
2023-01-29T07:01:57.454Z,11.25
2023-01-29T07:04:28.321Z,12.43
2023-01-29T07:07:01.019Z,10.73
2023-01-29T07:09:31.858Z,17.55
2023-01-29T07:12:03.052Z,4.13
2023-01-29T07:14:35.293Z,8.98
2023-01-29T07:17:06.383Z,6.00
2023-01-29T07:19:37.109Z,7.10
2023-01-29T07:22:08.292Z,4.40
2023-01-29T07:24:38.989Z,5.68
2023-01-29T07:27:10.650Z,10.40
2023-01-29T07:29:42.954Z,8.73
2023-01-29T07:32:14.053Z,8.88
2023-01-29T07:37:18.330Z,12.18
2023-01-29T07:39:49.118Z,8.00
2023-01-29T07:42:20.298Z,11.80
2023-01-29T07:44:52.424Z,9.57
2023-01-29T07:47:23.954Z,10.83
2023-01-29T07:49:55.539Z,8.98
2023-01-29T07:52:26.725Z,9.55
2023-01-29T07:54:57.699Z,14.73
2023-01-29T07:57:31.814Z,12.93
2023-01-29T08:02:43.512Z,13.63
2023-01-29T08:05:14.868Z,9.82
2023-01-29T08:07:49.320Z,17.10
2023-01-29T08:10:28.642Z,15.40
2023-01-29T08:13:02.666Z,13.85
2023-01-29T08:15:38.030Z,12.65
2023-01-29T08:18:11.459Z,11.80
2023-01-29T08:20:42.366Z,20.70
2023-01-29T08:23:17.680Z,12.15
2023-01-29T08:25:48.359Z,11.63
2023-01-29T08:28:19.663Z,13.50
2023-01-29T08:30:51.943Z,16.40
2023-01-29T08:33:29.615Z,11.13
2023-01-29T08:36:04.172Z,10.18
2023-01-29T08:38:35.349Z,7.45
2023-01-29T08:41:06.435Z,8.27
2023-01-29T08:43:38.739Z,8.75
2023-01-29T08:46:10.993Z,11.40
2023-01-29T08:48:42.378Z,11.98
2023-01-29T08:51:13.401Z,9.75
2023-01-29T08:53:44.469Z,10.55
2023-01-29T08:56:16.529Z,12.40
2023-01-29T08:58:47.756Z,8.65
2023-01-29T09:01:20.138Z,16.17
2023-01-29T09:03:52.571Z,9.23
2023-01-29T09:06:23.236Z,10.73
2023-01-29T09:08:54.195Z,10.32
2023-01-29T09:11:24.953Z,10.18
2023-01-29T09:13:56.085Z,7.65
2023-01-29T09:16:28.268Z,13.82
2023-01-29T09:18:59.394Z,6.33
2023-01-29T09:21:30.093Z,14.55
2023-01-29T09:24:03.714Z,16.08
2023-01-29T09:26:34.453Z,12.68
2023-01-29T09:29:05.563Z,7.72
2023-01-29T09:31:37.834Z,14.13
2023-01-29T09:34:15.376Z,13.93
2023-01-29T09:36:46.489Z,11.57
2023-01-29T09:39:17.519Z,11.93
2023-01-29T09:41:57.856Z,7.97
2023-01-29T09:44:48.502Z,8.95
2023-01-29T09:47:21.644Z,5.97
2023-01-29T09:52:29.564Z,8.32
2023-01-29T09:55:08.537Z,7.47
2023-01-29T09:57:47.912Z,13.63
2023-01-29T10:00:26.159Z,8.10
2023-01-29T10:03:24.899Z,8.77
2023-01-29T10:06:10.136Z,12.00
2023-01-29T10:09:12.052Z,9.70
2023-01-29T10:11:58.010Z,8.50
2023-01-29T10:14:39.650Z,8.85
2023-01-29T10:17:36.938Z,11.90
2023-01-29T10:20:40.505Z,7.07
2023-01-29T10:23:23.660Z,11.73
2023-01-29T10:25:55.943Z,6.38
2023-01-29T10:28:32.869Z,6.93
2023-01-29T10:31:09.953Z,12.38
2023-01-29T10:34:02.520Z,7.68
2023-01-29T10:36:42.857Z,7.97
2023-01-29T10:39:37.017Z,7.47
2023-01-29T10:42:24.216Z,14.07
2023-01-29T10:45:18.236Z,13.63
2023-01-29T10:50:52.832Z,8.52
2023-01-29T10:53:50.311Z,8.45
2023-01-29T10:56:43.772Z,11.23
2023-01-29T10:59:58.602Z,11.00
2023-01-29T11:02:29.761Z,9.65
2023-01-29T11:05:00.883Z,10.50
2023-01-29T11:07:32.626Z,9.98
2023-01-29T11:10:13.031Z,7.28
2023-01-29T11:12:45.111Z,13.02
2023-01-29T11:15:24.123Z,12.05
2023-01-29T11:18:06.511Z,9.20
2023-01-29T11:20:37.244Z,8.23
2023-01-29T11:23:25.083Z,18.58
2023-01-29T11:25:59.351Z,12.82
2023-01-29T11:28:42.312Z,6.50
2023-01-29T11:31:26.284Z,9.07
2023-01-29T11:34:07.603Z,10.68
2023-01-29T11:36:40.815Z,8.05
2023-01-29T11:39:20.771Z,16.27
2023-01-29T11:41:59.005Z,12.75
2023-01-29T11:44:33.561Z,9.13
2023-01-29T11:47:19.402Z,10.23
2023-01-29T11:49:53.770Z,4.47
2023-01-29T11:52:27.662Z,12.77
2023-01-29T11:55:03.737Z,22.38
2023-01-29T11:57:39.741Z,13.57
2023-01-29T12:00:23.922Z,7.85
2023-01-29T12:02:58.172Z,11.60
2023-01-29T12:05:29.936Z,11.68
2023-01-29T12:08:03.755Z,12.85
2023-01-29T12:10:38.146Z,10.63
2023-01-29T12:13:27.877Z,12.75
2023-01-29T12:16:20.375Z,9.55
2023-01-29T12:18:56.526Z,18.90
2023-01-29T12:21:36.380Z,13.20
2023-01-29T12:24:22.055Z,9.48
2023-01-29T12:27:02.549Z,6.50
2023-01-29T12:29:45.734Z,6.38
2023-01-29T12:32:31.348Z,7.13
2023-01-29T12:35:12.337Z,9.38
2023-01-29T12:37:55.795Z,7.05
2023-01-29T12:40:33.114Z,6.28
2023-01-29T12:43:11.670Z,12.23
2023-01-29T12:45:46.460Z,6.80
2023-01-29T12:48:25.830Z,4.13
2023-01-29T12:51:00.861Z,11.27
2023-01-29T12:53:38.760Z,10.48
2023-01-29T12:56:16.781Z,5.88
2023-01-29T12:58:52.502Z,8.65
2023-01-29T13:01:31.356Z,9.80
2023-01-29T13:04:08.301Z,6.65
2023-01-29T13:06:43.805Z,7.35
2023-01-29T13:09:20.033Z,12.32
2023-01-29T13:11:55.757Z,10.27
2023-01-29T13:14:34.959Z,7.80
2023-01-29T13:17:14.450Z,9.88
2023-01-29T13:19:50.943Z,8.93
2023-01-29T13:22:27.284Z,13.40
2023-01-29T13:25:05.255Z,9.57
2023-01-29T13:27:38.339Z,10.00
2023-01-29T13:30:24.962Z,8.95
2023-01-29T13:33:09.623Z,6.15
2023-01-29T13:35:46.526Z,12.40
2023-01-29T13:38:28.328Z,10.73
2023-01-29T13:41:04.485Z,12.52
2023-01-29T13:43:40.119Z,9.15
2023-01-29T13:46:14.762Z,12.20
2023-01-29T13:48:50.978Z,13.77
2023-01-29T13:51:28.151Z,12.45
2023-01-29T13:54:06.446Z,10.77
2023-01-29T13:57:02.617Z,11.73
2023-01-29T13:59:54.175Z,10.65
2023-01-29T14:02:29.179Z,11.88
2023-01-29T14:05:43.378Z,13.52
2023-01-29T14:11:37.577Z,5.85
2023-01-29T14:15:04.781Z,6.90
2023-01-29T14:17:37.415Z,8.25
2023-01-29T14:20:21.116Z,8.35
2023-01-29T14:22:59.676Z,12.25
2023-01-29T14:25:34.525Z,13.40
2023-01-29T14:28:15.945Z,12.48
2023-01-29T14:30:51.004Z,12.77
2023-01-29T14:33:29.553Z,7.35
2023-01-29T14:36:04.805Z,12.65
2023-01-29T14:38:37.128Z,19.35
2023-01-29T14:41:27.076Z,14.23
2023-01-29T14:44:55.673Z,12.82
2023-01-29T14:48:14.818Z,11.50
2023-01-29T14:51:00.534Z,15.00
2023-01-29T14:54:00.797Z,10.70
2023-01-29T14:56:37.484Z,9.85
2023-01-29T14:59:20.277Z,12.82
2023-01-29T15:01:56.340Z,14.90
2023-01-29T15:04:30.338Z,13.35
2023-01-29T15:07:07.281Z,14.05
2023-01-29T15:09:48.737Z,12.32
2023-01-29T15:12:29.262Z,15.25
2023-01-29T15:15:09.598Z,15.02
2023-01-29T15:17:50.875Z,12.10
2023-01-29T15:20:36.745Z,14.60
2023-01-29T15:23:27.657Z,15.23
2023-01-29T15:26:04.206Z,19.75
2023-01-29T15:28:36.777Z,23.67
2023-01-29T15:31:14.117Z,15.35
2023-01-29T15:33:49.446Z,18.33
2023-01-29T15:36:25.199Z,13.73
2023-01-29T15:39:18.878Z,15.77
2023-01-29T15:41:52.706Z,18.23
2023-01-29T15:44:26.967Z,17.63
2023-01-29T15:47:01.386Z,13.35
2023-01-29T15:49:35.362Z,13.70
2023-01-29T15:52:10.406Z,15.88
2023-01-29T15:54:41.325Z,15.90
2023-01-29T15:57:25.472Z,14.57
2023-01-29T16:02:40.710Z,22.80
2023-01-29T16:05:17.492Z,20.42
2023-01-29T16:07:50.124Z,16.52
2023-01-29T16:10:23.634Z,12.82
2023-01-29T16:12:57.125Z,25.60
2023-01-29T16:15:35.302Z,18.80
2023-01-29T16:18:23.452Z,21.30
2023-01-29T16:20:55.969Z,20.83
2023-01-29T16:23:33.439Z,20.88
2023-01-29T16:26:08.763Z,20.20
2023-01-29T16:28:44.932Z,16.10
2023-01-29T16:31:23.806Z,16.65
2023-01-29T16:33:56.722Z,26.48
2023-01-29T16:36:29.249Z,25.83
2023-01-29T16:39:24.301Z,16.38
2023-01-29T16:42:29.000Z,26.95
2023-01-29T16:45:03.922Z,23.00
2023-01-29T16:47:38.519Z,21.70
2023-01-29T16:50:40.514Z,19.23
2023-01-29T16:53:19.926Z,16.73
2023-01-29T16:55:53.914Z,12.32
2023-01-29T16:58:28.390Z,17.42
2023-01-29T17:01:04.860Z,15.00
2023-01-29T17:03:37.413Z,28.55
2023-01-29T17:06:14.364Z,19.92
2023-01-29T17:08:46.021Z,21.13
2023-01-29T17:11:31.864Z,24.90
2023-01-29T17:14:04.221Z,18.30
2023-01-29T17:16:48.149Z,16.45
2023-01-29T17:19:22.767Z,20.17
2023-01-29T17:21:54.160Z,14.52
2023-01-29T17:24:25.200Z,9.75
2023-01-29T17:26:57.815Z,19.98
2023-01-29T17:29:32.365Z,18.40
2023-01-29T17:32:05.042Z,23.00
2023-01-29T17:34:35.853Z,13.15
2023-01-29T17:37:07.340Z,22.00
2023-01-29T17:39:39.489Z,24.73
2023-01-29T17:42:15.804Z,20.07
2023-01-29T17:44:46.959Z,19.90
2023-01-29T17:47:20.019Z,16.10
2023-01-29T17:49:51.206Z,19.30
2023-01-29T17:52:22.581Z,15.52
2023-01-29T17:54:53.360Z,15.23
2023-01-29T17:57:25.693Z,16.83
2023-01-29T17:59:56.457Z,26.27
2023-01-29T18:02:30.090Z,22.10
2023-01-29T18:05:01.290Z,21.30
2023-01-29T18:07:32.571Z,24.73
2023-01-29T18:10:03.641Z,11.48
2023-01-29T18:12:35.171Z,15.07
2023-01-29T18:15:06.559Z,17.10
2023-01-29T18:17:40.527Z,12.68
2023-01-29T18:20:22.047Z,15.95
2023-01-29T18:22:53.559Z,11.55
2023-01-29T18:25:25.575Z,18.48
2023-01-29T18:27:57.021Z,18.83
2023-01-29T18:30:31.458Z,16.30
2023-01-29T18:33:24.249Z,20.90
2023-01-29T18:35:55.313Z,16.30
2023-01-29T18:38:26.565Z,12.55
2023-01-29T18:41:06.012Z,10.75
2023-01-29T18:43:37.059Z,15.18
2023-01-29T18:46:08.358Z,12.75
2023-01-29T18:48:42.667Z,11.52
2023-01-29T18:51:13.698Z,9.50
2023-01-29T18:53:50.364Z,14.48
2023-01-29T18:56:21.911Z,13.77
2023-01-29T18:58:57.153Z,14.57
2023-01-29T19:01:29.492Z,17.65
2023-01-29T19:04:02.251Z,9.30
2023-01-29T19:06:37.192Z,18.02
2023-01-29T19:09:09.541Z,9.80
2023-01-29T19:11:40.760Z,7.78
2023-01-29T19:14:12.154Z,11.00
2023-01-29T19:16:43.873Z,12.43
2023-01-29T19:19:16.966Z,10.10
2023-01-29T19:21:47.878Z,17.25
2023-01-29T19:24:19.321Z,12.07
2023-01-29T19:26:50.764Z,9.95
2023-01-29T19:29:22.811Z,8.43
2023-01-29T19:31:53.615Z,10.40
2023-01-29T19:34:27.302Z,12.25
2023-01-29T19:36:58.037Z,7.35
2023-01-29T19:39:33.746Z,8.95
2023-01-29T19:42:04.520Z,9.68
2023-01-29T19:44:35.915Z,10.20
2023-01-29T19:47:06.767Z,11.57
2023-01-29T19:49:40.528Z,7.78
2023-01-29T19:54:46.765Z,18.95
2023-01-29T19:57:17.659Z,7.43
2023-01-29T19:59:49.117Z,10.68
2023-01-29T20:02:19.979Z,13.32
2023-01-29T20:04:52.813Z,8.45
2023-01-29T20:07:23.679Z,7.63
2023-01-29T20:09:55.066Z,9.52
2023-01-29T20:12:27.171Z,7.80
2023-01-29T20:14:58.311Z,14.10
2023-01-29T20:17:29.456Z,17.98
2023-01-29T20:20:02.649Z,19.85
2023-01-29T20:22:34.359Z,20.25
2023-01-29T20:25:06.162Z,18.77
2023-01-29T20:27:36.940Z,13.32
2023-01-29T20:30:10.056Z,16.70
2023-01-29T20:32:41.138Z,18.98
2023-01-29T20:35:14.155Z,19.77
2023-01-29T20:37:44.963Z,20.42
2023-01-29T20:40:17.435Z,18.52
2023-01-29T20:42:48.781Z,10.63
2023-01-29T20:45:20.127Z,11.65
2023-01-29T20:47:51.795Z,16.73
2023-01-29T20:50:24.671Z,16.38
2023-01-29T20:52:55.796Z,15.10
2023-01-29T20:55:27.329Z,30.38
2023-01-29T20:58:06.447Z,22.92
2023-01-29T21:00:39.043Z,9.32
2023-01-29T21:03:10.514Z,17.75
2023-01-29T21:05:43.636Z,21.23
2023-01-29T21:08:15.464Z,13.52
2023-01-29T21:10:46.798Z,18.40
2023-01-29T21:13:17.935Z,27.65
2023-01-29T21:15:50.979Z,20.55
2023-01-29T21:18:22.466Z,21.95
2023-01-29T21:20:55.975Z,15.30
2023-01-29T21:23:27.476Z,32.28
2023-01-29T21:26:04.747Z,31.20
2023-01-29T21:28:36.526Z,39.25
2023-01-29T21:31:11.537Z,48.70
2023-01-29T21:33:45.158Z,32.88
2023-01-29T21:36:18.522Z,42.97
2023-01-29T21:38:50.212Z,47.17
2023-01-29T21:41:43.252Z,45.17
2023-01-29T21:44:13.788Z,47.33
2023-01-29T21:46:45.061Z,51.10
2023-01-29T21:49:15.708Z,38.25
2023-01-29T21:51:48.796Z,32.88
2023-01-29T21:54:19.987Z,39.47
2023-01-29T21:56:51.366Z,41.35
2023-01-29T21:59:22.549Z,37.63
2023-01-29T22:01:56.017Z,28.58
2023-01-29T22:04:26.957Z,29.25
2023-01-29T22:07:00.544Z,21.35
2023-01-29T22:09:33.756Z,23.27
2023-01-29T22:12:07.139Z,41.67
2023-01-29T22:14:38.289Z,31.08
2023-01-29T22:17:10.083Z,38.83
2023-01-29T22:19:44.533Z,22.98
2023-01-29T22:22:19.890Z,40.40
2023-01-29T22:24:52.601Z,38.38
2023-01-29T22:29:56.531Z,35.17
2023-01-29T22:32:28.733Z,36.53
2023-01-29T22:35:00.308Z,37.42
2023-01-29T22:37:33.395Z,43.33
2023-01-29T22:40:04.540Z,30.70
2023-01-29T22:42:35.894Z,33.85
2023-01-29T22:45:07.837Z,27.80
2023-01-29T22:47:39.759Z,40.13
2023-01-29T22:50:13.153Z,34.88
2023-01-29T22:52:54.294Z,42.83
2023-01-29T22:55:25.420Z,37.28
2023-01-29T22:57:56.593Z,34.95
2023-01-29T23:00:28.407Z,39.25
2023-01-29T23:02:59.957Z,32.70
2023-01-29T23:05:30.953Z,33.70
2023-01-29T23:08:03.692Z,27.48
2023-01-29T23:10:34.681Z,17.15
2023-01-29T23:13:05.919Z,30.77
2023-01-29T23:15:37.174Z,21.88
2023-01-29T23:18:10.012Z,28.23
2023-01-29T23:20:40.741Z,30.10
2023-01-29T23:23:13.254Z,19.08
2023-01-29T23:26:01.622Z,23.70
2023-01-29T23:28:32.763Z,25.45
2023-01-29T23:31:04.013Z,25.05
2023-01-29T23:33:35.695Z,14.15
2023-01-29T23:36:07.784Z,8.68
2023-01-29T23:38:40.630Z,15.70
2023-01-29T23:41:11.761Z,17.00
2023-01-29T23:43:43.789Z,10.80
2023-01-29T23:46:14.695Z,9.20
2023-01-29T23:48:45.756Z,9.20
2023-01-29T23:51:16.366Z,14.88
2023-01-29T23:53:49.278Z,12.35
2023-01-29T23:56:20.317Z,15.18
2023-01-29T23:58:56.034Z,13.18
